sensor_id;sensor_type;location;lat;lon;timestamp;P1;durP1;ratioP1;P2;durP2;ratioP2
18711;SDS011;9485;49.386;8.674;2022-11-21T00:01:31;3.17;;;1.90;;
18711;SDS011;9485;49.386;8.674;2022-11-21T00:06:52;2.37;;;1.40;;
18711;SDS011;9485;49.386;8.674;2022-11-21T00:12:15;2.07;;;1.37;;
18711;SDS011;9485;49.386;8.674;2022-11-21T00:17:36;2.47;;;1.57;;
18711;SDS011;9485;49.386;8.674;2022-11-21T00:22:56;3.57;;;1.33;;
18711;SDS011;9485;49.386;8.674;2022-11-21T00:28:18;4.13;;;1.37;;
18711;SDS011;9485;49.386;8.674;2022-11-21T00:33:39;1.43;;;1.30;;
18711;SDS011;9485;49.386;8.674;2022-11-21T00:39:00;4.07;;;1.43;;
18711;SDS011;9485;49.386;8.674;2022-11-21T00:44:22;1.93;;;1.27;;
18711;SDS011;9485;49.386;8.674;2022-11-21T00:49:42;2.80;;;1.17;;
18711;SDS011;9485;49.386;8.674;2022-11-21T00:55:03;2.10;;;1.07;;
18711;SDS011;9485;49.386;8.674;2022-11-21T01:00:26;4.00;;;1.50;;
18711;SDS011;9485;49.386;8.674;2022-11-21T01:05:46;1.80;;;1.23;;
18711;SDS011;9485;49.386;8.674;2022-11-21T01:11:07;1.60;;;1.10;;
18711;SDS011;9485;49.386;8.674;2022-11-21T01:16:32;2.17;;;1.37;;
18711;SDS011;9485;49.386;8.674;2022-11-21T01:21:54;2.57;;;1.23;;
18711;SDS011;9485;49.386;8.674;2022-11-21T01:27:14;1.13;;;1.03;;
18711;SDS011;9485;49.386;8.674;2022-11-21T01:32:36;2.07;;;1.43;;
18711;SDS011;9485;49.386;8.674;2022-11-21T01:37:56;1.50;;;1.40;;
18711;SDS011;9485;49.386;8.674;2022-11-21T01:43:17;4.13;;;1.20;;
18711;SDS011;9485;49.386;8.674;2022-11-21T01:48:39;1.73;;;1.30;;
18711;SDS011;9485;49.386;8.674;2022-11-21T01:54:07;2.33;;;1.30;;
18711;SDS011;9485;49.386;8.674;2022-11-21T01:59:35;1.37;;;1.27;;
18711;SDS011;9485;49.386;8.674;2022-11-21T02:05:08;3.30;;;1.33;;
18711;SDS011;9485;49.386;8.674;2022-11-21T02:10:35;1.30;;;1.03;;
18711;SDS011;9485;49.386;8.674;2022-11-21T02:16:03;2.90;;;1.23;;
18711;SDS011;9485;49.386;8.674;2022-11-21T02:21:29;1.33;;;1.07;;
18711;SDS011;9485;49.386;8.674;2022-11-21T02:27:02;4.27;;;1.20;;
18711;SDS011;9485;49.386;8.674;2022-11-21T02:32:24;2.57;;;1.17;;
18711;SDS011;9485;49.386;8.674;2022-11-21T02:37:55;1.27;;;1.17;;
18711;SDS011;9485;49.386;8.674;2022-11-21T02:43:20;1.37;;;1.13;;
18711;SDS011;9485;49.386;8.674;2022-11-21T02:48:44;1.37;;;1.27;;
18711;SDS011;9485;49.386;8.674;2022-11-21T02:54:06;1.20;;;1.10;;
18711;SDS011;9485;49.386;8.674;2022-11-21T02:59:28;2.67;;;1.43;;
18711;SDS011;9485;49.386;8.674;2022-11-21T03:04:49;2.50;;;1.80;;
18711;SDS011;9485;49.386;8.674;2022-11-21T03:10:10;1.47;;;1.37;;
18711;SDS011;9485;49.386;8.674;2022-11-21T03:15:33;3.43;;;1.20;;
18711;SDS011;9485;49.386;8.674;2022-11-21T03:20:56;1.57;;;1.20;;
18711;SDS011;9485;49.386;8.674;2022-11-21T03:26:17;0.90;;;0.90;;
18711;SDS011;9485;49.386;8.674;2022-11-21T03:31:39;2.63;;;1.23;;
18711;SDS011;9485;49.386;8.674;2022-11-21T03:37:00;1.60;;;1.00;;
18711;SDS011;9485;49.386;8.674;2022-11-21T03:42:20;1.63;;;1.30;;
18711;SDS011;9485;49.386;8.674;2022-11-21T03:47:42;1.27;;;1.00;;
18711;SDS011;9485;49.386;8.674;2022-11-21T03:53:03;1.97;;;1.10;;
18711;SDS011;9485;49.386;8.674;2022-11-21T03:58:24;1.30;;;1.07;;
18711;SDS011;9485;49.386;8.674;2022-11-21T04:03:46;1.00;;;0.90;;
18711;SDS011;9485;49.386;8.674;2022-11-21T04:09:07;1.10;;;1.00;;
18711;SDS011;9485;49.386;8.674;2022-11-21T04:14:28;2.47;;;1.10;;
18711;SDS011;9485;49.386;8.674;2022-11-21T04:19:50;1.20;;;1.00;;
18711;SDS011;9485;49.386;8.674;2022-11-21T04:25:10;1.17;;;0.90;;
18711;SDS011;9485;49.386;8.674;2022-11-21T04:30:32;1.10;;;1.10;;
18711;SDS011;9485;49.386;8.674;2022-11-21T04:35:54;3.40;;;1.50;;
18711;SDS011;9485;49.386;8.674;2022-11-21T04:41:15;2.87;;;1.50;;
18711;SDS011;9485;49.386;8.674;2022-11-21T04:46:35;2.37;;;1.50;;
18711;SDS011;9485;49.386;8.674;2022-11-21T04:51:57;2.50;;;1.40;;
18711;SDS011;9485;49.386;8.674;2022-11-21T04:57:18;1.50;;;1.40;;
18711;SDS011;9485;49.386;8.674;2022-11-21T05:02:38;1.67;;;1.43;;
18711;SDS011;9485;49.386;8.674;2022-11-21T05:08:00;2.40;;;1.20;;
18711;SDS011;9485;49.386;8.674;2022-11-21T05:13:21;1.10;;;1.10;;
18711;SDS011;9485;49.386;8.674;2022-11-21T05:18:42;1.57;;;1.40;;
18711;SDS011;9485;49.386;8.674;2022-11-21T05:24:04;1.57;;;1.37;;
18711;SDS011;9485;49.386;8.674;2022-11-21T05:29:26;1.47;;;1.30;;
18711;SDS011;9485;49.386;8.674;2022-11-21T05:34:47;1.30;;;1.20;;
18711;SDS011;9485;49.386;8.674;2022-11-21T05:40:09;1.30;;;1.10;;
18711;SDS011;9485;49.386;8.674;2022-11-21T05:45:30;1.30;;;1.20;;
18711;SDS011;9485;49.386;8.674;2022-11-21T05:50:51;1.40;;;1.30;;
18711;SDS011;9485;49.386;8.674;2022-11-21T05:56:13;2.00;;;1.77;;
18711;SDS011;9485;49.386;8.674;2022-11-21T06:01:36;1.47;;;1.37;;
18711;SDS011;9485;49.386;8.674;2022-11-21T06:07:15;2.70;;;1.20;;
18711;SDS011;9485;49.386;8.674;2022-11-21T06:12:37;2.27;;;1.10;;
18711;SDS011;9485;49.386;8.674;2022-11-21T06:17:58;1.80;;;1.30;;
18711;SDS011;9485;49.386;8.674;2022-11-21T06:23:19;2.87;;;1.73;;
18711;SDS011;9485;49.386;8.674;2022-11-21T06:28:41;1.87;;;1.30;;
18711;SDS011;9485;49.386;8.674;2022-11-21T06:34:03;2.47;;;1.63;;
18711;SDS011;9485;49.386;8.674;2022-11-21T06:39:25;1.30;;;1.20;;
18711;SDS011;9485;49.386;8.674;2022-11-21T06:44:47;2.93;;;1.67;;
18711;SDS011;9485;49.386;8.674;2022-11-21T06:50:08;2.77;;;2.23;;
18711;SDS011;9485;49.386;8.674;2022-11-21T06:55:29;2.77;;;2.30;;
18711;SDS011;9485;49.386;8.674;2022-11-21T07:00:51;2.70;;;1.67;;
18711;SDS011;9485;49.386;8.674;2022-11-21T07:06:12;1.93;;;1.40;;
18711;SDS011;9485;49.386;8.674;2022-11-21T07:11:33;1.57;;;1.47;;
18711;SDS011;9485;49.386;8.674;2022-11-21T07:16:55;1.87;;;1.40;;
18711;SDS011;9485;49.386;8.674;2022-11-21T07:22:16;1.90;;;1.30;;
18711;SDS011;9485;49.386;8.674;2022-11-21T07:27:36;2.87;;;1.63;;
18711;SDS011;9485;49.386;8.674;2022-11-21T07:32:59;2.53;;;1.60;;
18711;SDS011;9485;49.386;8.674;2022-11-21T07:38:23;3.73;;;1.57;;
18711;SDS011;9485;49.386;8.674;2022-11-21T07:43:44;4.23;;;1.80;;
18711;SDS011;9485;49.386;8.674;2022-11-21T07:49:06;3.57;;;1.40;;
18711;SDS011;9485;49.386;8.674;2022-11-21T07:54:26;2.90;;;1.57;;
18711;SDS011;9485;49.386;8.674;2022-11-21T07:59:47;3.00;;;1.50;;
18711;SDS011;9485;49.386;8.674;2022-11-21T08:05:09;1.70;;;1.60;;
18711;SDS011;9485;49.386;8.674;2022-11-21T08:10:30;3.30;;;1.50;;
18711;SDS011;9485;49.386;8.674;2022-11-21T08:15:50;5.93;;;2.07;;
18711;SDS011;9485;49.386;8.674;2022-11-21T08:21:12;5.63;;;1.97;;
18711;SDS011;9485;49.386;8.674;2022-11-21T08:26:32;2.80;;;1.80;;
18711;SDS011;9485;49.386;8.674;2022-11-21T08:31:54;4.03;;;1.83;;
18711;SDS011;9485;49.386;8.674;2022-11-21T08:37:16;3.83;;;1.40;;
18711;SDS011;9485;49.386;8.674;2022-11-21T08:42:36;5.40;;;1.60;;
18711;SDS011;9485;49.386;8.674;2022-11-21T08:47:57;2.30;;;1.30;;
18711;SDS011;9485;49.386;8.674;2022-11-21T08:53:19;1.47;;;1.37;;
18711;SDS011;9485;49.386;8.674;2022-11-21T08:58:40;2.13;;;1.40;;
18711;SDS011;9485;49.386;8.674;2022-11-21T09:04:01;2.77;;;1.50;;
18711;SDS011;9485;49.386;8.674;2022-11-21T09:09:23;2.93;;;1.43;;
18711;SDS011;9485;49.386;8.674;2022-11-21T09:14:43;2.90;;;1.83;;
18711;SDS011;9485;49.386;8.674;2022-11-21T09:20:22;3.03;;;1.40;;
18711;SDS011;9485;49.386;8.674;2022-11-21T09:25:44;4.57;;;1.40;;
18711;SDS011;9485;49.386;8.674;2022-11-21T09:31:04;2.63;;;1.27;;
18711;SDS011;9485;49.386;8.674;2022-11-21T09:36:25;3.33;;;1.43;;
18711;SDS011;9485;49.386;8.674;2022-11-21T09:41:50;2.63;;;1.17;;
18711;SDS011;9485;49.386;8.674;2022-11-21T09:47:26;2.37;;;1.40;;
18711;SDS011;9485;49.386;8.674;2022-11-21T09:52:51;1.97;;;1.00;;
18711;SDS011;9485;49.386;8.674;2022-11-21T09:58:22;2.73;;;1.17;;
18711;SDS011;9485;49.386;8.674;2022-11-21T10:03:48;5.17;;;1.47;;
18711;SDS011;9485;49.386;8.674;2022-11-21T10:09:12;3.97;;;1.30;;
18711;SDS011;9485;49.386;8.674;2022-11-21T10:14:59;2.30;;;1.10;;
18711;SDS011;9485;49.386;8.674;2022-11-21T10:20:38;1.97;;;0.90;;
18711;SDS011;9485;49.386;8.674;2022-11-21T10:26:13;4.53;;;1.40;;
18711;SDS011;9485;49.386;8.674;2022-11-21T10:31:41;2.43;;;0.80;;
18711;SDS011;9485;49.386;8.674;2022-11-21T10:37:06;2.10;;;1.13;;
18711;SDS011;9485;49.386;8.674;2022-11-21T10:42:39;3.00;;;1.10;;
18711;SDS011;9485;49.386;8.674;2022-11-21T10:48:10;6.63;;;1.20;;
18711;SDS011;9485;49.386;8.674;2022-11-21T10:53:30;3.80;;;1.47;;
18711;SDS011;9485;49.386;8.674;2022-11-21T10:59:11;2.37;;;1.30;;
18711;SDS011;9485;49.386;8.674;2022-11-21T11:04:44;3.17;;;1.20;;
18711;SDS011;9485;49.386;8.674;2022-11-21T11:10:20;3.50;;;1.23;;
18711;SDS011;9485;49.386;8.674;2022-11-21T11:15:53;2.73;;;1.27;;
18711;SDS011;9485;49.386;8.674;2022-11-21T11:21:22;5.47;;;1.67;;
18711;SDS011;9485;49.386;8.674;2022-11-21T11:26:48;3.20;;;1.43;;
18711;SDS011;9485;49.386;8.674;2022-11-21T11:32:14;4.27;;;1.30;;
18711;SDS011;9485;49.386;8.674;2022-11-21T11:37:38;3.73;;;1.20;;
18711;SDS011;9485;49.386;8.674;2022-11-21T11:43:04;3.87;;;1.40;;
18711;SDS011;9485;49.386;8.674;2022-11-21T11:49:02;4.90;;;1.60;;
18711;SDS011;9485;49.386;8.674;2022-11-21T11:54:31;3.13;;;1.20;;
18711;SDS011;9485;49.386;8.674;2022-11-21T12:00:05;3.07;;;1.60;;
18711;SDS011;9485;49.386;8.674;2022-11-21T12:05:51;2.53;;;1.40;;
18711;SDS011;9485;49.386;8.674;2022-11-21T12:11:24;2.57;;;1.30;;
18711;SDS011;9485;49.386;8.674;2022-11-21T12:17:09;4.83;;;1.70;;
18711;SDS011;9485;49.386;8.674;2022-11-21T12:22:35;3.97;;;1.57;;
18711;SDS011;9485;49.386;8.674;2022-11-21T12:27:57;4.17;;;1.77;;
18711;SDS011;9485;49.386;8.674;2022-11-21T12:33:19;3.43;;;1.30;;
18711;SDS011;9485;49.386;8.674;2022-11-21T12:38:53;3.47;;;1.37;;
18711;SDS011;9485;49.386;8.674;2022-11-21T12:44:34;5.03;;;1.30;;
18711;SDS011;9485;49.386;8.674;2022-11-21T12:50:13;2.10;;;1.10;;
18711;SDS011;9485;49.386;8.674;2022-11-21T12:56:01;2.07;;;1.20;;
18711;SDS011;9485;49.386;8.674;2022-11-21T13:01:34;4.20;;;1.70;;
18711;SDS011;9485;49.386;8.674;2022-11-21T13:07:06;6.57;;;1.53;;
18711;SDS011;9485;49.386;8.674;2022-11-21T13:12:29;1.53;;;1.20;;
18711;SDS011;9485;49.386;8.674;2022-11-21T13:18:02;2.23;;;1.30;;
18711;SDS011;9485;49.386;8.674;2022-11-21T13:23:38;4.17;;;1.83;;
18711;SDS011;9485;49.386;8.674;2022-11-21T13:29:05;2.80;;;1.27;;
18711;SDS011;9485;49.386;8.674;2022-11-21T13:34:35;4.10;;;1.40;;
18711;SDS011;9485;49.386;8.674;2022-11-21T13:40:04;3.00;;;1.30;;
18711;SDS011;9485;49.386;8.674;2022-11-21T13:45:56;2.40;;;1.30;;
18711;SDS011;9485;49.386;8.674;2022-11-21T13:51:22;3.90;;;1.40;;
18711;SDS011;9485;49.386;8.674;2022-11-21T13:57:14;4.87;;;1.20;;
18711;SDS011;9485;49.386;8.674;2022-11-21T14:02:59;6.27;;;1.80;;
18711;SDS011;9485;49.386;8.674;2022-11-21T14:14:47;6.73;;;2.40;;
18711;SDS011;9485;49.386;8.674;2022-11-21T14:20:16;5.43;;;1.80;;
18711;SDS011;9485;49.386;8.674;2022-11-21T14:25:43;7.53;;;2.73;;
18711;SDS011;9485;49.386;8.674;2022-11-21T14:31:09;6.60;;;1.90;;
18711;SDS011;9485;49.386;8.674;2022-11-21T14:36:31;6.50;;;1.87;;
18711;SDS011;9485;49.386;8.674;2022-11-21T14:41:54;6.47;;;2.10;;
18711;SDS011;9485;49.386;8.674;2022-11-21T14:47:18;4.83;;;1.67;;
18711;SDS011;9485;49.386;8.674;2022-11-21T14:52:40;6.43;;;1.60;;
18711;SDS011;9485;49.386;8.674;2022-11-21T14:58:03;6.33;;;2.40;;
18711;SDS011;9485;49.386;8.674;2022-11-21T15:03:27;3.43;;;1.80;;
18711;SDS011;9485;49.386;8.674;2022-11-21T15:08:48;1.83;;;1.47;;
18711;SDS011;9485;49.386;8.674;2022-11-21T15:14:11;3.17;;;1.70;;
18711;SDS011;9485;49.386;8.674;2022-11-21T15:19:43;3.63;;;1.70;;
18711;SDS011;9485;49.386;8.674;2022-11-21T15:25:06;5.63;;;1.70;;
18711;SDS011;9485;49.386;8.674;2022-11-21T15:30:36;4.93;;;1.53;;
18711;SDS011;9485;49.386;8.674;2022-11-21T15:36:09;4.37;;;1.57;;
18711;SDS011;9485;49.386;8.674;2022-11-21T15:41:32;5.77;;;1.60;;
18711;SDS011;9485;49.386;8.674;2022-11-21T15:46:55;4.97;;;1.80;;
18711;SDS011;9485;49.386;8.674;2022-11-21T15:52:16;3.03;;;1.47;;
18711;SDS011;9485;49.386;8.674;2022-11-21T15:57:37;4.03;;;1.67;;
18711;SDS011;9485;49.386;8.674;2022-11-21T16:02:58;7.50;;;1.97;;
18711;SDS011;9485;49.386;8.674;2022-11-21T16:08:20;4.17;;;1.40;;
18711;SDS011;9485;49.386;8.674;2022-11-21T16:13:40;4.80;;;1.50;;
18711;SDS011;9485;49.386;8.674;2022-11-21T16:19:02;3.40;;;1.40;;
18711;SDS011;9485;49.386;8.674;2022-11-21T16:24:23;3.87;;;1.40;;
18711;SDS011;9485;49.386;8.674;2022-11-21T16:29:43;2.53;;;1.37;;
18711;SDS011;9485;49.386;8.674;2022-11-21T16:35:05;2.70;;;1.50;;
18711;SDS011;9485;49.386;8.674;2022-11-21T16:40:27;6.37;;;1.40;;
18711;SDS011;9485;49.386;8.674;2022-11-21T16:45:48;3.63;;;1.70;;
18711;SDS011;9485;49.386;8.674;2022-11-21T16:51:12;5.33;;;1.77;;
18711;SDS011;9485;49.386;8.674;2022-11-21T16:56:34;2.87;;;1.70;;
18711;SDS011;9485;49.386;8.674;2022-11-21T17:01:56;4.50;;;2.40;;
18711;SDS011;9485;49.386;8.674;2022-11-21T17:07:18;3.17;;;1.83;;
18711;SDS011;9485;49.386;8.674;2022-11-21T17:12:39;5.03;;;2.20;;
18711;SDS011;9485;49.386;8.674;2022-11-21T17:18:02;6.47;;;2.43;;
18711;SDS011;9485;49.386;8.674;2022-11-21T17:23:23;3.57;;;2.13;;
18711;SDS011;9485;49.386;8.674;2022-11-21T17:28:49;2.23;;;1.63;;
18711;SDS011;9485;49.386;8.674;2022-11-21T17:34:10;3.07;;;1.43;;
18711;SDS011;9485;49.386;8.674;2022-11-21T17:39:32;2.40;;;1.50;;
18711;SDS011;9485;49.386;8.674;2022-11-21T17:44:52;4.03;;;2.00;;
18711;SDS011;9485;49.386;8.674;2022-11-21T17:50:13;3.97;;;2.00;;
18711;SDS011;9485;49.386;8.674;2022-11-21T17:55:35;3.80;;;1.80;;
18711;SDS011;9485;49.386;8.674;2022-11-21T18:00:56;3.30;;;1.90;;
18711;SDS011;9485;49.386;8.674;2022-11-21T18:06:18;5.37;;;2.17;;
18711;SDS011;9485;49.386;8.674;2022-11-21T18:11:40;4.40;;;1.67;;
18711;SDS011;9485;49.386;8.674;2022-11-21T18:17:01;2.60;;;1.60;;
18711;SDS011;9485;49.386;8.674;2022-11-21T18:22:23;2.60;;;2.40;;
18711;SDS011;9485;49.386;8.674;2022-11-21T18:27:44;5.93;;;1.90;;
18711;SDS011;9485;49.386;8.674;2022-11-21T18:33:05;3.00;;;1.70;;
18711;SDS011;9485;49.386;8.674;2022-11-21T18:38:29;3.07;;;1.80;;
18711;SDS011;9485;49.386;8.674;2022-11-21T18:43:53;5.07;;;1.87;;
18711;SDS011;9485;49.386;8.674;2022-11-21T18:49:15;2.80;;;1.97;;
18711;SDS011;9485;49.386;8.674;2022-11-21T18:54:36;2.67;;;1.73;;
18711;SDS011;9485;49.386;8.674;2022-11-21T18:59:59;2.87;;;1.93;;
18711;SDS011;9485;49.386;8.674;2022-11-21T19:05:19;3.80;;;1.80;;
18711;SDS011;9485;49.386;8.674;2022-11-21T19:10:40;4.50;;;2.40;;
18711;SDS011;9485;49.386;8.674;2022-11-21T19:16:02;3.10;;;1.90;;
18711;SDS011;9485;49.386;8.674;2022-11-21T19:21:24;3.20;;;2.00;;
18711;SDS011;9485;49.386;8.674;2022-11-21T19:26:45;4.30;;;1.80;;
18711;SDS011;9485;49.386;8.674;2022-11-21T19:32:09;2.40;;;1.50;;
18711;SDS011;9485;49.386;8.674;2022-11-21T19:37:29;4.53;;;1.73;;
18711;SDS011;9485;49.386;8.674;2022-11-21T19:42:50;5.40;;;2.43;;
18711;SDS011;9485;49.386;8.674;2022-11-21T19:48:11;2.60;;;1.90;;
18711;SDS011;9485;49.386;8.674;2022-11-21T19:53:33;3.83;;;2.10;;
18711;SDS011;9485;49.386;8.674;2022-11-21T19:58:57;3.30;;;1.73;;
18711;SDS011;9485;49.386;8.674;2022-11-21T20:04:19;3.27;;;1.83;;
18711;SDS011;9485;49.386;8.674;2022-11-21T20:09:41;6.03;;;1.80;;
18711;SDS011;9485;49.386;8.674;2022-11-21T20:15:01;2.10;;;1.80;;
18711;SDS011;9485;49.386;8.674;2022-11-21T20:20:24;3.83;;;1.87;;
18711;SDS011;9485;49.386;8.674;2022-11-21T20:25:48;2.70;;;2.17;;
18711;SDS011;9485;49.386;8.674;2022-11-21T20:31:10;3.30;;;2.00;;
18711;SDS011;9485;49.386;8.674;2022-11-21T20:36:35;4.70;;;1.60;;
18711;SDS011;9485;49.386;8.674;2022-11-21T20:41:55;3.40;;;2.00;;
18711;SDS011;9485;49.386;8.674;2022-11-21T20:47:16;4.60;;;2.30;;
18711;SDS011;9485;49.386;8.674;2022-11-21T20:52:38;3.73;;;2.10;;
18711;SDS011;9485;49.386;8.674;2022-11-21T20:57:59;2.93;;;2.40;;
18711;SDS011;9485;49.386;8.674;2022-11-21T21:03:20;3.10;;;1.97;;
18711;SDS011;9485;49.386;8.674;2022-11-21T21:08:42;3.20;;;1.87;;
18711;SDS011;9485;49.386;8.674;2022-11-21T21:14:04;4.60;;;2.00;;
18711;SDS011;9485;49.386;8.674;2022-11-21T21:19:25;4.33;;;1.97;;
18711;SDS011;9485;49.386;8.674;2022-11-21T21:24:48;2.77;;;2.30;;
18711;SDS011;9485;49.386;8.674;2022-11-21T21:30:09;3.53;;;1.90;;
18711;SDS011;9485;49.386;8.674;2022-11-21T21:35:31;4.20;;;2.50;;
18711;SDS011;9485;49.386;8.674;2022-11-21T21:40:56;3.80;;;2.20;;
18711;SDS011;9485;49.386;8.674;2022-11-21T21:46:17;4.27;;;2.30;;
18711;SDS011;9485;49.386;8.674;2022-11-21T21:51:39;3.77;;;2.80;;
18711;SDS011;9485;49.386;8.674;2022-11-21T21:57:01;2.67;;;1.80;;
18711;SDS011;9485;49.386;8.674;2022-11-21T22:02:22;2.67;;;1.77;;
18711;SDS011;9485;49.386;8.674;2022-11-21T22:07:42;4.70;;;2.60;;
18711;SDS011;9485;49.386;8.674;2022-11-21T22:13:04;5.67;;;2.77;;
18711;SDS011;9485;49.386;8.674;2022-11-21T22:18:25;3.23;;;2.40;;
18711;SDS011;9485;49.386;8.674;2022-11-21T22:23:46;2.70;;;2.13;;
18711;SDS011;9485;49.386;8.674;2022-11-21T22:29:08;3.70;;;2.10;;
18711;SDS011;9485;49.386;8.674;2022-11-21T22:34:29;3.70;;;2.20;;
18711;SDS011;9485;49.386;8.674;2022-11-21T22:39:49;4.37;;;2.37;;
18711;SDS011;9485;49.386;8.674;2022-11-21T22:45:11;4.73;;;2.63;;
18711;SDS011;9485;49.386;8.674;2022-11-21T22:50:31;3.27;;;2.40;;
18711;SDS011;9485;49.386;8.674;2022-11-21T22:55:55;2.70;;;2.00;;
18711;SDS011;9485;49.386;8.674;2022-11-21T23:01:19;2.23;;;2.03;;
18711;SDS011;9485;49.386;8.674;2022-11-21T23:06:41;4.50;;;1.87;;
18711;SDS011;9485;49.386;8.674;2022-11-21T23:12:02;3.13;;;2.00;;
18711;SDS011;9485;49.386;8.674;2022-11-21T23:17:24;2.67;;;1.90;;
18711;SDS011;9485;49.386;8.674;2022-11-21T23:22:45;3.63;;;2.57;;
18711;SDS011;9485;49.386;8.674;2022-11-21T23:28:05;2.80;;;2.30;;
18711;SDS011;9485;49.386;8.674;2022-11-21T23:33:27;3.30;;;2.40;;
18711;SDS011;9485;49.386;8.674;2022-11-21T23:38:48;4.50;;;2.73;;
18711;SDS011;9485;49.386;8.674;2022-11-21T23:44:09;3.57;;;2.10;;
18711;SDS011;9485;49.386;8.674;2022-11-21T23:49:31;1.97;;;1.70;;
18711;SDS011;9485;49.386;8.674;2022-11-21T23:54:51;4.43;;;2.10;;
